sensor_id;sensor_type;location;lat;lon;timestamp;temperature;humidity
66506;HTU21D;53332;51.082;5.832;2022-09-12T00:00:41;13.71;118.99
66506;HTU21D;53332;51.082;5.832;2022-09-12T00:03:07;13.69;118.99
66506;HTU21D;53332;51.082;5.832;2022-09-12T00:05:32;13.67;118.99
66506;HTU21D;53332;51.082;5.832;2022-09-12T00:07:59;13.64;118.99
66506;HTU21D;53332;51.082;5.832;2022-09-12T00:10:25;13.63;118.99
66506;HTU21D;53332;51.082;5.832;2022-09-12T00:12:52;13.62;118.99
66506;HTU21D;53332;51.082;5.832;2022-09-12T00:15:17;13.60;118.99
66506;HTU21D;53332;51.082;5.832;2022-09-12T00:17:43;13.60;118.99
66506;HTU21D;53332;51.082;5.832;2022-09-12T00:20:10;13.59;118.99
66506;HTU21D;53332;51.082;5.832;2022-09-12T00:22:36;13.60;118.99
66506;HTU21D;53332;51.082;5.832;2022-09-12T00:25:03;13.58;118.99
66506;HTU21D;53332;51.082;5.832;2022-09-12T00:27:29;13.56;118.99
66506;HTU21D;53332;51.082;5.832;2022-09-12T00:29:54;13.56;118.99
66506;HTU21D;53332;51.082;5.832;2022-09-12T00:32:20;13.54;118.99
66506;HTU21D;53332;51.082;5.832;2022-09-12T00:34:46;13.55;118.99
66506;HTU21D;53332;51.082;5.832;2022-09-12T00:37:11;13.52;118.99
66506;HTU21D;53332;51.082;5.832;2022-09-12T00:39:37;13.53;118.99
66506;HTU21D;53332;51.082;5.832;2022-09-12T00:42:03;13.53;118.99
66506;HTU21D;53332;51.082;5.832;2022-09-12T00:47:05;13.50;118.99
66506;HTU21D;53332;51.082;5.832;2022-09-12T00:49:43;13.51;118.99
66506;HTU21D;53332;51.082;5.832;2022-09-12T00:52:46;13.50;118.99
66506;HTU21D;53332;51.082;5.832;2022-09-12T00:55:20;13.48;118.99
66506;HTU21D;53332;51.082;5.832;2022-09-12T00:58:00;13.46;118.99
66506;HTU21D;53332;51.082;5.832;2022-09-12T01:00:27;13.44;118.99
66506;HTU21D;53332;51.082;5.832;2022-09-12T01:03:06;13.40;118.99
66506;HTU21D;53332;51.082;5.832;2022-09-12T01:05:37;13.40;118.99
66506;HTU21D;53332;51.082;5.832;2022-09-12T01:08:04;13.36;118.99
66506;HTU21D;53332;51.082;5.832;2022-09-12T01:10:34;13.33;118.99
66506;HTU21D;53332;51.082;5.832;2022-09-12T01:13:00;13.31;118.99
66506;HTU21D;53332;51.082;5.832;2022-09-12T01:15:27;13.31;118.99
66506;HTU21D;53332;51.082;5.832;2022-09-12T01:32:42;13.26;118.99
66506;HTU21D;53332;51.082;5.832;2022-09-12T01:35:20;13.26;118.99
66506;HTU21D;53332;51.082;5.832;2022-09-12T01:41:09;13.21;118.99
66506;HTU21D;53332;51.082;5.832;2022-09-12T01:46:58;13.12;118.99
66506;HTU21D;53332;51.082;5.832;2022-09-12T01:49:55;13.04;118.99
66506;HTU21D;53332;51.082;5.832;2022-09-12T01:52:32;13.01;118.99
66506;HTU21D;53332;51.082;5.832;2022-09-12T01:55:25;12.95;118.99
66506;HTU21D;53332;51.082;5.832;2022-09-12T01:58:15;12.92;118.99
66506;HTU21D;53332;51.082;5.832;2022-09-12T02:01:03;12.91;118.99
66506;HTU21D;53332;51.082;5.832;2022-09-12T02:03:43;12.91;118.99
66506;HTU21D;53332;51.082;5.832;2022-09-12T02:06:22;12.90;118.99
66506;HTU21D;53332;51.082;5.832;2022-09-12T02:11:52;12.87;118.99
66506;HTU21D;53332;51.082;5.832;2022-09-12T02:14:35;12.84;118.99
66506;HTU21D;53332;51.082;5.832;2022-09-12T02:17:11;12.84;118.99
66506;HTU21D;53332;51.082;5.832;2022-09-12T02:19:54;12.82;118.99
66506;HTU21D;53332;51.082;5.832;2022-09-12T02:22:26;12.80;118.99
66506;HTU21D;53332;51.082;5.832;2022-09-12T02:24:59;12.81;118.99
66506;HTU21D;53332;51.082;5.832;2022-09-12T02:27:34;12.79;118.99
66506;HTU21D;53332;51.082;5.832;2022-09-12T02:30:03;12.76;118.99
66506;HTU21D;53332;51.082;5.832;2022-09-12T02:32:36;12.74;118.99
66506;HTU21D;53332;51.082;5.832;2022-09-12T02:38:25;12.64;118.99
66506;HTU21D;53332;51.082;5.832;2022-09-12T02:40:53;12.62;118.99
66506;HTU21D;53332;51.082;5.832;2022-09-12T02:43:19;12.60;118.99
66506;HTU21D;53332;51.082;5.832;2022-09-12T02:45:45;12.60;118.99
66506;HTU21D;53332;51.082;5.832;2022-09-12T02:48:19;12.59;118.99
66506;HTU21D;53332;51.082;5.832;2022-09-12T02:50:46;12.59;118.99
66506;HTU21D;53332;51.082;5.832;2022-09-12T02:53:12;12.60;118.99
66506;HTU21D;53332;51.082;5.832;2022-09-12T02:55:40;12.61;118.99
66506;HTU21D;53332;51.082;5.832;2022-09-12T02:58:13;12.61;118.99
66506;HTU21D;53332;51.082;5.832;2022-09-12T03:00:56;12.60;118.99
66506;HTU21D;53332;51.082;5.832;2022-09-12T03:06:34;12.60;118.99
66506;HTU21D;53332;51.082;5.832;2022-09-12T03:09:06;12.60;118.99
66506;HTU21D;53332;51.082;5.832;2022-09-12T03:20:27;12.60;118.99
66506;HTU21D;53332;51.082;5.832;2022-09-12T03:22:47;12.60;118.99
66506;HTU21D;53332;51.082;5.832;2022-09-12T03:25:21;12.58;118.99
66506;HTU21D;53332;51.082;5.832;2022-09-12T03:30:38;12.51;118.99
66506;HTU21D;53332;51.082;5.832;2022-09-12T03:33:03;12.50;118.99
66506;HTU21D;53332;51.082;5.832;2022-09-12T03:35:29;12.48;118.99
66506;HTU21D;53332;51.082;5.832;2022-09-12T03:37:55;12.47;118.99
66506;HTU21D;53332;51.082;5.832;2022-09-12T03:40:20;12.47;118.99
66506;HTU21D;53332;51.082;5.832;2022-09-12T03:42:46;12.47;118.99
66506;HTU21D;53332;51.082;5.832;2022-09-12T03:45:12;12.45;118.99
66506;HTU21D;53332;51.082;5.832;2022-09-12T03:47:39;12.45;118.99
66506;HTU21D;53332;51.082;5.832;2022-09-12T03:50:05;12.45;118.99
66506;HTU21D;53332;51.082;5.832;2022-09-12T03:52:31;12.45;118.99
66506;HTU21D;53332;51.082;5.832;2022-09-12T03:54:56;12.45;118.99
66506;HTU21D;53332;51.082;5.832;2022-09-12T03:57:22;12.46;118.99
66506;HTU21D;53332;51.082;5.832;2022-09-12T03:59:48;12.48;118.99
66506;HTU21D;53332;51.082;5.832;2022-09-12T04:02:17;12.48;118.99
66506;HTU21D;53332;51.082;5.832;2022-09-12T04:04:44;12.48;118.99
66506;HTU21D;53332;51.082;5.832;2022-09-12T04:07:12;12.50;118.99
66506;HTU21D;53332;51.082;5.832;2022-09-12T04:09:37;12.49;118.99
66506;HTU21D;53332;51.082;5.832;2022-09-12T04:12:03;12.50;118.99
66506;HTU21D;53332;51.082;5.832;2022-09-12T04:14:29;12.51;118.99
66506;HTU21D;53332;51.082;5.832;2022-09-12T04:23:51;12.48;118.99
66506;HTU21D;53332;51.082;5.832;2022-09-12T04:26:18;12.45;118.99
66506;HTU21D;53332;51.082;5.832;2022-09-12T04:28:45;12.44;118.99
66506;HTU21D;53332;51.082;5.832;2022-09-12T04:31:14;12.43;118.99
66506;HTU21D;53332;51.082;5.832;2022-09-12T04:33:46;12.41;118.99
66506;HTU21D;53332;51.082;5.832;2022-09-12T04:36:16;12.38;118.99
66506;HTU21D;53332;51.082;5.832;2022-09-12T04:38:43;12.36;118.99
66506;HTU21D;53332;51.082;5.832;2022-09-12T04:41:14;12.33;118.99
66506;HTU21D;53332;51.082;5.832;2022-09-12T04:43:40;12.29;118.99
66506;HTU21D;53332;51.082;5.832;2022-09-12T04:46:08;12.22;118.99
66506;HTU21D;53332;51.082;5.832;2022-09-12T04:48:34;12.16;118.99
66506;HTU21D;53332;51.082;5.832;2022-09-12T04:51:27;12.12;118.99
66506;HTU21D;53332;51.082;5.832;2022-09-12T04:53:59;12.11;118.99
66506;HTU21D;53332;51.082;5.832;2022-09-12T04:56:27;12.11;118.99
66506;HTU21D;53332;51.082;5.832;2022-09-12T04:58:56;12.14;118.99
66506;HTU21D;53332;51.082;5.832;2022-09-12T05:01:22;12.15;118.99
66506;HTU21D;53332;51.082;5.832;2022-09-12T05:03:49;12.18;118.99
66506;HTU21D;53332;51.082;5.832;2022-09-12T05:06:20;12.22;118.99
66506;HTU21D;53332;51.082;5.832;2022-09-12T05:08:47;12.27;118.99
66506;HTU21D;53332;51.082;5.832;2022-09-12T05:11:16;12.31;118.99
66506;HTU21D;53332;51.082;5.832;2022-09-12T05:13:42;12.33;118.99
66506;HTU21D;53332;51.082;5.832;2022-09-12T05:16:10;12.38;118.99
66506;HTU21D;53332;51.082;5.832;2022-09-12T05:18:37;12.41;118.99
66506;HTU21D;53332;51.082;5.832;2022-09-12T05:21:06;12.44;118.99
66506;HTU21D;53332;51.082;5.832;2022-09-12T05:23:32;12.49;118.99
66506;HTU21D;53332;51.082;5.832;2022-09-12T05:25:59;12.53;118.99
66506;HTU21D;53332;51.082;5.832;2022-09-12T05:28:32;12.59;118.99
66506;HTU21D;53332;51.082;5.832;2022-09-12T05:33:29;12.70;118.99
66506;HTU21D;53332;51.082;5.832;2022-09-12T05:35:55;12.77;118.99
66506;HTU21D;53332;51.082;5.832;2022-09-12T05:38:21;12.86;118.99
66506;HTU21D;53332;51.082;5.832;2022-09-12T05:40:47;12.95;118.99
66506;HTU21D;53332;51.082;5.832;2022-09-12T05:43:13;13.02;118.99
66506;HTU21D;53332;51.082;5.832;2022-09-12T05:45:39;13.07;118.99
66506;HTU21D;53332;51.082;5.832;2022-09-12T05:48:06;13.12;118.99
66506;HTU21D;53332;51.082;5.832;2022-09-12T05:50:31;13.16;118.99
66506;HTU21D;53332;51.082;5.832;2022-09-12T05:52:57;13.23;118.99
66506;HTU21D;53332;51.082;5.832;2022-09-12T05:55:23;13.27;118.99
66506;HTU21D;53332;51.082;5.832;2022-09-12T05:57:49;13.32;118.99
66506;HTU21D;53332;51.082;5.832;2022-09-12T06:00:15;13.37;118.99
66506;HTU21D;53332;51.082;5.832;2022-09-12T06:02:41;13.41;118.99
66506;HTU21D;53332;51.082;5.832;2022-09-12T06:05:07;13.46;118.99
66506;HTU21D;53332;51.082;5.832;2022-09-12T06:07:32;13.53;118.99
66506;HTU21D;53332;51.082;5.832;2022-09-12T06:09:58;13.59;118.99
66506;HTU21D;53332;51.082;5.832;2022-09-12T06:12:24;13.68;118.99
66506;HTU21D;53332;51.082;5.832;2022-09-12T06:14:52;13.78;118.99
66506;HTU21D;53332;51.082;5.832;2022-09-12T06:17:18;13.89;118.99
66506;HTU21D;53332;51.082;5.832;2022-09-12T06:19:43;13.98;118.99
66506;HTU21D;53332;51.082;5.832;2022-09-12T06:22:10;14.06;118.99
66506;HTU21D;53332;51.082;5.832;2022-09-12T06:24:35;14.17;118.99
66506;HTU21D;53332;51.082;5.832;2022-09-12T06:27:01;14.23;118.99
66506;HTU21D;53332;51.082;5.832;2022-09-12T06:29:27;14.32;118.99
66506;HTU21D;53332;51.082;5.832;2022-09-12T06:31:53;14.40;118.99
66506;HTU21D;53332;51.082;5.832;2022-09-12T06:34:19;14.52;118.99
66506;HTU21D;53332;51.082;5.832;2022-09-12T06:36:47;14.64;118.99
66506;HTU21D;53332;51.082;5.832;2022-09-12T06:39:15;14.71;118.99
66506;HTU21D;53332;51.082;5.832;2022-09-12T06:41:41;14.78;118.99
66506;HTU21D;53332;51.082;5.832;2022-09-12T06:44:07;14.86;118.99
66506;HTU21D;53332;51.082;5.832;2022-09-12T06:46:33;14.95;118.99
66506;HTU21D;53332;51.082;5.832;2022-09-12T06:49:00;15.01;118.99
66506;HTU21D;53332;51.082;5.832;2022-09-12T06:51:27;15.08;118.99
66506;HTU21D;53332;51.082;5.832;2022-09-12T06:53:55;15.15;118.99
66506;HTU21D;53332;51.082;5.832;2022-09-12T06:56:24;15.27;118.99
66506;HTU21D;53332;51.082;5.832;2022-09-12T06:58:50;15.40;118.99
66506;HTU21D;53332;51.082;5.832;2022-09-12T07:01:29;15.56;118.99
66506;HTU21D;53332;51.082;5.832;2022-09-12T07:03:58;15.71;118.99
66506;HTU21D;53332;51.082;5.832;2022-09-12T07:06:27;15.88;118.99
66506;HTU21D;53332;51.082;5.832;2022-09-12T07:08:58;16.01;118.99
66506;HTU21D;53332;51.082;5.832;2022-09-12T07:11:32;16.16;118.99
66506;HTU21D;53332;51.082;5.832;2022-09-12T07:14:00;16.29;118.99
66506;HTU21D;53332;51.082;5.832;2022-09-12T07:16:27;16.41;118.99
66506;HTU21D;53332;51.082;5.832;2022-09-12T07:18:54;16.56;118.99
66506;HTU21D;53332;51.082;5.832;2022-09-12T07:21:20;16.66;118.99
66506;HTU21D;53332;51.082;5.832;2022-09-12T07:23:46;16.75;118.99
66506;HTU21D;53332;51.082;5.832;2022-09-12T07:26:14;16.84;118.99
66506;HTU21D;53332;51.082;5.832;2022-09-12T07:28:40;16.89;118.99
66506;HTU21D;53332;51.082;5.832;2022-09-12T07:31:09;16.93;118.99
66506;HTU21D;53332;51.082;5.832;2022-09-12T07:33:36;16.95;118.99
66506;HTU21D;53332;51.082;5.832;2022-09-12T07:36:05;16.95;118.99
66506;HTU21D;53332;51.082;5.832;2022-09-12T07:38:31;16.93;118.99
66506;HTU21D;53332;51.082;5.832;2022-09-12T07:40:56;16.93;118.99
66506;HTU21D;53332;51.082;5.832;2022-09-12T07:43:23;16.92;118.99
66506;HTU21D;53332;51.082;5.832;2022-09-12T07:45:54;16.90;118.99
66506;HTU21D;53332;51.082;5.832;2022-09-12T07:48:20;16.92;118.99
66506;HTU21D;53332;51.082;5.832;2022-09-12T07:50:46;17.02;118.99
66506;HTU21D;53332;51.082;5.832;2022-09-12T07:53:12;17.15;118.99
66506;HTU21D;53332;51.082;5.832;2022-09-12T07:55:37;17.26;118.99
66506;HTU21D;53332;51.082;5.832;2022-09-12T07:58:03;17.41;118.99
66506;HTU21D;53332;51.082;5.832;2022-09-12T08:00:29;17.58;118.99
66506;HTU21D;53332;51.082;5.832;2022-09-12T08:03:00;17.68;118.99
66506;HTU21D;53332;51.082;5.832;2022-09-12T08:05:27;17.80;118.99
66506;HTU21D;53332;51.082;5.832;2022-09-12T08:07:54;17.82;118.99
66506;HTU21D;53332;51.082;5.832;2022-09-12T08:10:19;17.91;118.99
66506;HTU21D;53332;51.082;5.832;2022-09-12T08:12:45;17.99;118.99
66506;HTU21D;53332;51.082;5.832;2022-09-12T08:15:11;18.02;118.99
66506;HTU21D;53332;51.082;5.832;2022-09-12T08:17:36;18.00;118.99
66506;HTU21D;53332;51.082;5.832;2022-09-12T08:20:02;18.02;118.99
66506;HTU21D;53332;51.082;5.832;2022-09-12T08:22:29;18.10;118.99
66506;HTU21D;53332;51.082;5.832;2022-09-12T08:24:55;18.25;118.99
66506;HTU21D;53332;51.082;5.832;2022-09-12T08:27:21;18.35;118.99
66506;HTU21D;53332;51.082;5.832;2022-09-12T08:29:46;18.42;118.99
66506;HTU21D;53332;51.082;5.832;2022-09-12T08:32:12;18.49;118.99
66506;HTU21D;53332;51.082;5.832;2022-09-12T08:34:37;18.55;118.99
66506;HTU21D;53332;51.082;5.832;2022-09-12T08:37:03;18.64;118.99
66506;HTU21D;53332;51.082;5.832;2022-09-12T08:39:29;18.77;118.99
66506;HTU21D;53332;51.082;5.832;2022-09-12T08:42:00;18.87;118.99
66506;HTU21D;53332;51.082;5.832;2022-09-12T08:49:52;19.16;118.99
66506;HTU21D;53332;51.082;5.832;2022-09-12T08:52:59;19.26;118.99
66506;HTU21D;53332;51.082;5.832;2022-09-12T08:55:35;19.35;118.99
66506;HTU21D;53332;51.082;5.832;2022-09-12T08:58:11;19.44;118.99
66506;HTU21D;53332;51.082;5.832;2022-09-12T09:09:48;19.84;116.91
66506;HTU21D;53332;51.082;5.832;2022-09-12T09:12:47;19.90;116.33
66506;HTU21D;53332;51.082;5.832;2022-09-12T09:15:26;19.99;116.05
66506;HTU21D;53332;51.082;5.832;2022-09-12T09:18:03;20.02;115.20
66506;HTU21D;53332;51.082;5.832;2022-09-12T09:20:56;20.07;114.67
66506;HTU21D;53332;51.082;5.832;2022-09-12T09:23:28;20.13;114.13
66506;HTU21D;53332;51.082;5.832;2022-09-12T09:26:09;20.19;113.83
66506;HTU21D;53332;51.082;5.832;2022-09-12T09:28:46;20.27;113.38
66506;HTU21D;53332;51.082;5.832;2022-09-12T09:31:19;20.33;112.45
66506;HTU21D;53332;51.082;5.832;2022-09-12T09:33:48;20.42;111.91
66506;HTU21D;53332;51.082;5.832;2022-09-12T09:36:46;20.50;111.10
66506;HTU21D;53332;51.082;5.832;2022-09-12T09:42:28;20.71;110.12
66506;HTU21D;53332;51.082;5.832;2022-09-12T09:44:59;20.78;108.21
66506;HTU21D;53332;51.082;5.832;2022-09-12T09:47:27;20.87;107.88
66506;HTU21D;53332;51.082;5.832;2022-09-12T09:49:53;20.95;106.70
66506;HTU21D;53332;51.082;5.832;2022-09-12T09:52:25;21.01;105.85
66506;HTU21D;53332;51.082;5.832;2022-09-12T09:54:57;21.05;104.30
66506;HTU21D;53332;51.082;5.832;2022-09-12T10:00:20;21.25;105.06
66506;HTU21D;53332;51.082;5.832;2022-09-12T10:08:31;21.62;100.93
66506;HTU21D;53332;51.082;5.832;2022-09-12T10:11:06;21.67;100.19
66506;HTU21D;53332;51.082;5.832;2022-09-12T10:16:30;21.70;98.73
66506;HTU21D;53332;51.082;5.832;2022-09-12T10:18:58;21.72;99.38
66506;HTU21D;53332;51.082;5.832;2022-09-12T10:24:36;21.75;98.37
66506;HTU21D;53332;51.082;5.832;2022-09-12T10:29:33;21.81;98.39
66506;HTU21D;53332;51.082;5.832;2022-09-12T10:32:06;21.89;97.94
66506;HTU21D;53332;51.082;5.832;2022-09-12T10:37:07;22.10;95.91
66506;HTU21D;53332;51.082;5.832;2022-09-12T10:39:37;22.19;95.27
66506;HTU21D;53332;51.082;5.832;2022-09-12T10:42:03;22.29;94.76
66506;HTU21D;53332;51.082;5.832;2022-09-12T10:44:32;22.34;94.48
66506;HTU21D;53332;51.082;5.832;2022-09-12T10:47:17;22.40;93.78
66506;HTU21D;53332;51.082;5.832;2022-09-12T10:49:44;22.47;93.49
66506;HTU21D;53332;51.082;5.832;2022-09-12T10:52:21;22.57;92.31
66506;HTU21D;53332;51.082;5.832;2022-09-12T10:54:47;22.64;91.50
66506;HTU21D;53332;51.082;5.832;2022-09-12T11:00:11;22.81;91.57
66506;HTU21D;53332;51.082;5.832;2022-09-12T11:02:51;22.82;91.22
66506;HTU21D;53332;51.082;5.832;2022-09-12T11:05:35;22.90;91.37
66506;HTU21D;53332;51.082;5.832;2022-09-12T11:08:11;23.01;91.28
66506;HTU21D;53332;51.082;5.832;2022-09-12T11:13:27;23.16;89.09
66506;HTU21D;53332;51.082;5.832;2022-09-12T11:29:39;23.44;87.62
66506;HTU21D;53332;51.082;5.832;2022-09-12T11:35:28;23.56;86.10
66506;HTU21D;53332;51.082;5.832;2022-09-12T11:40:58;23.75;85.79
66506;HTU21D;53332;51.082;5.832;2022-09-12T11:43:37;23.83;84.93
66506;HTU21D;53332;51.082;5.832;2022-09-12T11:46:18;23.92;85.19
66506;HTU21D;53332;51.082;5.832;2022-09-12T11:54:37;24.02;84.07
66506;HTU21D;53332;51.082;5.832;2022-09-12T11:59:54;24.16;82.42
66506;HTU21D;53332;51.082;5.832;2022-09-12T12:02:30;24.25;83.61
66506;HTU21D;53332;51.082;5.832;2022-09-12T12:07:40;24.41;83.74
66506;HTU21D;53332;51.082;5.832;2022-09-12T12:10:21;24.49;83.86
66506;HTU21D;53332;51.082;5.832;2022-09-12T12:12:50;24.47;81.53
66506;HTU21D;53332;51.082;5.832;2022-09-12T12:15:17;24.53;80.87
66506;HTU21D;53332;51.082;5.832;2022-09-12T12:17:43;24.58;81.02
66506;HTU21D;53332;51.082;5.832;2022-09-12T12:20:16;24.68;80.56
66506;HTU21D;53332;51.082;5.832;2022-09-12T12:22:53;24.79;79.40
66506;HTU21D;53332;51.082;5.832;2022-09-12T12:40:53;25.09;76.76
66506;HTU21D;53332;51.082;5.832;2022-09-12T12:43:30;25.10;76.34
66506;HTU21D;53332;51.082;5.832;2022-09-12T12:46:05;25.15;74.53
66506;HTU21D;53332;51.082;5.832;2022-09-12T12:48:35;25.19;75.31
66506;HTU21D;53332;51.082;5.832;2022-09-12T12:51:21;25.27;76.44
66506;HTU21D;53332;51.082;5.832;2022-09-12T12:53:52;25.32;74.62
66506;HTU21D;53332;51.082;5.832;2022-09-12T12:56:39;25.34;73.99
66506;HTU21D;53332;51.082;5.832;2022-09-12T12:59:22;25.27;72.95
66506;HTU21D;53332;51.082;5.832;2022-09-12T13:01:54;25.19;71.76
66506;HTU21D;53332;51.082;5.832;2022-09-12T13:04:26;25.14;72.30
66506;HTU21D;53332;51.082;5.832;2022-09-12T13:07:05;25.22;72.87
66506;HTU21D;53332;51.082;5.832;2022-09-12T13:09:36;25.35;72.03
66506;HTU21D;53332;51.082;5.832;2022-09-12T13:12:11;25.44;71.90
66506;HTU21D;53332;51.082;5.832;2022-09-12T13:17:19;25.60;70.16
66506;HTU21D;53332;51.082;5.832;2022-09-12T13:19:48;25.68;69.53
66506;HTU21D;53332;51.082;5.832;2022-09-12T13:22:14;25.80;69.07
66506;HTU21D;53332;51.082;5.832;2022-09-12T13:24:44;25.84;67.48
66506;HTU21D;53332;51.082;5.832;2022-09-12T13:27:24;25.91;67.17
66506;HTU21D;53332;51.082;5.832;2022-09-12T13:30:06;25.90;66.00
66506;HTU21D;53332;51.082;5.832;2022-09-12T13:32:32;25.91;66.69
66506;HTU21D;53332;51.082;5.832;2022-09-12T13:35:38;25.93;66.07
66506;HTU21D;53332;51.082;5.832;2022-09-12T13:43:38;26.06;67.62
66506;HTU21D;53332;51.082;5.832;2022-09-12T13:46:08;26.10;68.20
66506;HTU21D;53332;51.082;5.832;2022-09-12T13:48:38;26.17;67.02
66506;HTU21D;53332;51.082;5.832;2022-09-12T13:51:05;26.17;67.10
66506;HTU21D;53332;51.082;5.832;2022-09-12T13:53:42;26.13;69.07
66506;HTU21D;53332;51.082;5.832;2022-09-12T13:56:18;26.17;68.87
66506;HTU21D;53332;51.082;5.832;2022-09-12T13:58:58;26.21;67.17
66506;HTU21D;53332;51.082;5.832;2022-09-12T14:01:40;26.27;65.69
66506;HTU21D;53332;51.082;5.832;2022-09-12T14:04:25;26.31;65.16
66506;HTU21D;53332;51.082;5.832;2022-09-12T14:07:18;26.32;66.88
66506;HTU21D;53332;51.082;5.832;2022-09-12T14:09:53;26.32;66.53
66506;HTU21D;53332;51.082;5.832;2022-09-12T14:12:37;26.27;66.39
66506;HTU21D;53332;51.082;5.832;2022-09-12T14:15:21;26.28;65.95
66506;HTU21D;53332;51.082;5.832;2022-09-12T14:17:53;26.33;65.56
66506;HTU21D;53332;51.082;5.832;2022-09-12T14:20:21;26.28;65.18
66506;HTU21D;53332;51.082;5.832;2022-09-12T14:22:49;26.24;64.40
66506;HTU21D;53332;51.082;5.832;2022-09-12T14:25:19;26.19;64.40
66506;HTU21D;53332;51.082;5.832;2022-09-12T14:27:50;26.17;64.37
66506;HTU21D;53332;51.082;5.832;2022-09-12T14:36:08;26.32;64.18
66506;HTU21D;53332;51.082;5.832;2022-09-12T14:38:40;26.39;63.42
66506;HTU21D;53332;51.082;5.832;2022-09-12T14:41:13;26.38;62.53
66506;HTU21D;53332;51.082;5.832;2022-09-12T14:43:51;26.45;63.82
66506;HTU21D;53332;51.082;5.832;2022-09-12T14:46:37;26.58;64.36
66506;HTU21D;53332;51.082;5.832;2022-09-12T14:51:55;26.72;61.35
66506;HTU21D;53332;51.082;5.832;2022-09-12T14:54:39;26.73;61.60
66506;HTU21D;53332;51.082;5.832;2022-09-12T14:57:30;26.73;61.05
66506;HTU21D;53332;51.082;5.832;2022-09-12T15:02:41;26.52;61.92
66506;HTU21D;53332;51.082;5.832;2022-09-12T15:07:38;26.45;61.90
66506;HTU21D;53332;51.082;5.832;2022-09-12T15:15:44;26.40;62.53
66506;HTU21D;53332;51.082;5.832;2022-09-12T15:18:10;26.45;61.18
66506;HTU21D;53332;51.082;5.832;2022-09-12T15:20:38;26.46;61.28
66506;HTU21D;53332;51.082;5.832;2022-09-12T15:23:14;26.51;61.54
66506;HTU21D;53332;51.082;5.832;2022-09-12T15:25:41;26.60;60.66
66506;HTU21D;53332;51.082;5.832;2022-09-12T15:28:18;26.67;60.68
66506;HTU21D;53332;51.082;5.832;2022-09-12T15:30:47;26.71;61.20
66506;HTU21D;53332;51.082;5.832;2022-09-12T15:33:15;26.73;61.06
66506;HTU21D;53332;51.082;5.832;2022-09-12T15:35:41;26.75;61.18
66506;HTU21D;53332;51.082;5.832;2022-09-12T15:38:07;26.80;60.65
66506;HTU21D;53332;51.082;5.832;2022-09-12T15:40:33;26.82;60.60
66506;HTU21D;53332;51.082;5.832;2022-09-12T15:42:59;26.83;59.66
66506;HTU21D;53332;51.082;5.832;2022-09-12T15:45:29;26.86;60.10
66506;HTU21D;53332;51.082;5.832;2022-09-12T15:47:55;26.86;59.91
66506;HTU21D;53332;51.082;5.832;2022-09-12T15:50:21;26.82;59.48
66506;HTU21D;53332;51.082;5.832;2022-09-12T15:52:47;26.71;59.40
66506;HTU21D;53332;51.082;5.832;2022-09-12T15:55:27;26.64;60.11
66506;HTU21D;53332;51.082;5.832;2022-09-12T15:57:53;26.58;60.11
66506;HTU21D;53332;51.082;5.832;2022-09-12T16:00:19;26.54;61.35
66506;HTU21D;53332;51.082;5.832;2022-09-12T16:02:48;26.54;61.67
66506;HTU21D;53332;51.082;5.832;2022-09-12T16:05:17;26.50;62.28
66506;HTU21D;53332;51.082;5.832;2022-09-12T16:07:43;26.43;62.67
66506;HTU21D;53332;51.082;5.832;2022-09-12T16:10:18;26.38;62.17
66506;HTU21D;53332;51.082;5.832;2022-09-12T16:12:44;26.30;62.32
66506;HTU21D;53332;51.082;5.832;2022-09-12T16:15:19;26.24;62.50
66506;HTU21D;53332;51.082;5.832;2022-09-12T16:17:45;26.22;63.31
66506;HTU21D;53332;51.082;5.832;2022-09-12T16:20:11;26.21;63.40
66506;HTU21D;53332;51.082;5.832;2022-09-12T16:22:37;26.19;63.92
66506;HTU21D;53332;51.082;5.832;2022-09-12T16:25:03;26.20;64.11
66506;HTU21D;53332;51.082;5.832;2022-09-12T16:27:30;26.16;63.65
66506;HTU21D;53332;51.082;5.832;2022-09-12T16:29:56;26.13;64.11
66506;HTU21D;53332;51.082;5.832;2022-09-12T16:32:21;26.09;64.69
66506;HTU21D;53332;51.082;5.832;2022-09-12T16:34:47;26.09;65.34
66506;HTU21D;53332;51.082;5.832;2022-09-12T16:37:14;26.05;65.41
66506;HTU21D;53332;51.082;5.832;2022-09-12T16:39:39;26.02;65.27
66506;HTU21D;53332;51.082;5.832;2022-09-12T16:42:05;25.95;64.03
66506;HTU21D;53332;51.082;5.832;2022-09-12T16:44:30;25.90;64.72
66506;HTU21D;53332;51.082;5.832;2022-09-12T16:46:56;25.83;64.74
66506;HTU21D;53332;51.082;5.832;2022-09-12T16:49:22;25.78;65.15
66506;HTU21D;53332;51.082;5.832;2022-09-12T16:51:47;25.72;65.97
66506;HTU21D;53332;51.082;5.832;2022-09-12T16:54:16;25.65;66.87
66506;HTU21D;53332;51.082;5.832;2022-09-12T16:56:42;25.59;67.34
66506;HTU21D;53332;51.082;5.832;2022-09-12T16:59:08;25.51;67.27
66506;HTU21D;53332;51.082;5.832;2022-09-12T17:01:37;25.46;67.36
66506;HTU21D;53332;51.082;5.832;2022-09-12T17:04:03;25.39;66.90
66506;HTU21D;53332;51.082;5.832;2022-09-12T17:06:31;25.33;67.01
66506;HTU21D;53332;51.082;5.832;2022-09-12T17:08:59;25.23;67.92
66506;HTU21D;53332;51.082;5.832;2022-09-12T17:11:28;25.14;68.11
66506;HTU21D;53332;51.082;5.832;2022-09-12T17:13:58;25.00;69.26
66506;HTU21D;53332;51.082;5.832;2022-09-12T17:16:24;24.88;69.02
66506;HTU21D;53332;51.082;5.832;2022-09-12T17:18:51;24.75;69.23
66506;HTU21D;53332;51.082;5.832;2022-09-12T17:21:18;24.61;69.81
66506;HTU21D;53332;51.082;5.832;2022-09-12T17:23:44;24.48;70.82
66506;HTU21D;53332;51.082;5.832;2022-09-12T17:26:10;24.35;72.72
66506;HTU21D;53332;51.082;5.832;2022-09-12T17:28:37;24.23;74.02
66506;HTU21D;53332;51.082;5.832;2022-09-12T17:31:06;24.10;73.04
66506;HTU21D;53332;51.082;5.832;2022-09-12T17:33:32;23.99;72.48
66506;HTU21D;53332;51.082;5.832;2022-09-12T17:36:07;23.86;72.35
66506;HTU21D;53332;51.082;5.832;2022-09-12T17:38:37;23.75;73.79
66506;HTU21D;53332;51.082;5.832;2022-09-12T17:41:16;23.60;77.22
66506;HTU21D;53332;51.082;5.832;2022-09-12T17:43:43;23.43;80.11
66506;HTU21D;53332;51.082;5.832;2022-09-12T17:46:11;23.29;81.59
66506;HTU21D;53332;51.082;5.832;2022-09-12T17:48:37;23.18;82.72
66506;HTU21D;53332;51.082;5.832;2022-09-12T17:51:10;23.09;85.11
66506;HTU21D;53332;51.082;5.832;2022-09-12T17:53:37;22.98;87.67
66506;HTU21D;53332;51.082;5.832;2022-09-12T17:56:03;22.82;89.18
66506;HTU21D;53332;51.082;5.832;2022-09-12T17:58:30;22.64;91.63
66506;HTU21D;53332;51.082;5.832;2022-09-12T18:01:00;22.51;93.82
66506;HTU21D;53332;51.082;5.832;2022-09-12T18:03:44;22.38;95.44
66506;HTU21D;53332;51.082;5.832;2022-09-12T18:06:10;22.25;96.30
66506;HTU21D;53332;51.082;5.832;2022-09-12T18:08:36;22.13;97.20
66506;HTU21D;53332;51.082;5.832;2022-09-12T18:11:04;22.02;98.23
66506;HTU21D;53332;51.082;5.832;2022-09-12T18:13:33;21.92;100.42
66506;HTU21D;53332;51.082;5.832;2022-09-12T18:16:06;21.84;101.67
66506;HTU21D;53332;51.082;5.832;2022-09-12T18:18:34;21.76;101.86